Time;durP1;ratioP1;P1;durP2;ratioP2;P2;SDS_P1;SDS_P2;PMS_P1;PMS_P2;Temp;Humidity;BMP_temperature;BMP_pressure;BME280_temperature;BME280_humidity;BME280_pressure;Samples;Min_cycle;Max_cycle;Signal;HPM_P1;HPM_P2
2024/03/08 00:00:18;;;;;;;14.95;9.10;;;4.60;86.40;;;;;;5072187;28;20033;-66
2024/03/08 00:02:45;;;;;;;16.02;8.77;;;4.60;86.40;;;;;;5068328;28;20016;-65
2024/03/08 00:05:12;;;;;;;18.83;10.90;;;4.60;86.20;;;;;;5069357;28;20028;-66
2024/03/08 00:07:38;;;;;;;18.30;9.75;;;4.60;86.00;;;;;;5070789;28;20029;-65
2024/03/08 00:10:05;;;;;;;18.45;9.90;;;4.60;85.90;;;;;;5070535;28;20017;-66
2024/03/08 00:12:31;;;;;;;25.20;12.30;;;4.60;86.00;;;;;;5069734;28;20017;-67
2024/03/08 00:14:56;;;;;;;20.50;11.27;;;4.50;85.60;;;;;;5069078;28;20048;-67
2024/03/08 00:17:22;;;;;;;20.30;11.57;;;4.50;85.70;;;;;;5067988;28;20029;-66
2024/03/08 00:19:49;;;;;;;17.77;9.73;;;4.50;85.60;;;;;;5068512;28;20497;-67
2024/03/08 00:22:16;;;;;;;18.08;10.40;;;4.50;85.70;;;;;;5072472;28;20555;-67
2024/03/08 00:24:41;;;;;;;19.50;10.95;;;4.50;85.60;;;;;;5070740;28;20077;-64
2024/03/08 00:27:08;;;;;;;17.65;10.65;;;4.50;85.20;;;;;;5070902;28;20103;-65
2024/03/08 00:29:34;;;;;;;21.55;11.35;;;4.50;85.10;;;;;;5087007;28;20016;-65
2024/03/08 00:32:00;;;;;;;19.67;10.65;;;4.40;85.10;;;;;;5077642;28;20073;-64
2024/03/08 00:34:25;;;;;;;20.08;10.93;;;4.50;85.40;;;;;;5070862;28;20122;-65
2024/03/08 00:36:52;;;;;;;21.35;10.90;;;4.50;85.00;;;;;;5065171;28;20082;-66
2024/03/08 00:39:19;;;;;;;17.92;10.00;;;4.50;84.80;;;;;;5070144;28;20143;-65
2024/03/08 00:41:45;;;;;;;20.48;11.60;;;4.40;84.70;;;;;;5073518;28;20040;-67
2024/03/08 00:44:11;;;;;;;18.80;10.38;;;4.40;84.50;;;;;;5075663;28;20020;-66
2024/03/08 00:46:36;;;;;;;17.83;9.23;;;4.40;84.70;;;;;;5080720;28;20017;-66
2024/03/08 00:49:02;;;;;;;18.98;10.07;;;4.40;84.80;;;;;;5076251;28;20052;-64
2024/03/08 00:51:27;;;;;;;18.08;9.93;;;4.40;84.50;;;;;;5072982;28;20024;-67
2024/03/08 00:53:53;;;;;;;20.75;10.95;;;4.40;84.40;;;;;;5072525;28;20048;-67
2024/03/08 00:56:18;;;;;;;21.00;11.70;;;4.30;84.30;;;;;;5065369;28;20103;-66
2024/03/08 00:58:44;;;;;;;22.17;11.70;;;4.30;84.00;;;;;;5069484;28;20056;-66
2024/03/08 01:01:10;;;;;;;15.32;9.75;;;4.30;84.10;;;;;;5070980;28;20751;-67
2024/03/08 01:03:36;;;;;;;20.45;11.00;;;4.30;84.10;;;;;;5075014;28;20115;-67
2024/03/08 01:06:02;;;;;;;15.68;9.18;;;4.30;84.00;;;;;;5079174;28;20016;-67
2024/03/08 01:08:28;;;;;;;17.40;10.63;;;4.30;84.10;;;;;;5071631;28;20490;-67
2024/03/08 01:10:53;;;;;;;20.80;11.07;;;4.30;83.90;;;;;;5076261;28;20056;-67
2024/03/08 01:13:19;;;;;;;22.45;12.85;;;4.20;83.60;;;;;;5068880;28;20028;-65
2024/03/08 01:15:45;;;;;;;20.58;11.75;;;4.20;83.60;;;;;;5068408;28;20024;-65
2024/03/08 01:18:11;;;;;;;16.38;10.07;;;4.20;83.70;;;;;;5067686;28;20029;-66
2024/03/08 01:20:37;;;;;;;17.58;9.60;;;4.20;83.70;;;;;;5075462;28;20498;-65
2024/03/08 01:23:07;;;;;;;16.00;9.32;;;4.10;83.50;;;;;;5076420;28;20036;-66
2024/03/08 01:25:33;;;;;;;17.13;8.98;;;4.20;83.70;;;;;;5073855;28;20489;-68
2024/03/08 01:27:58;;;;;;;16.17;9.60;;;4.20;83.70;;;;;;5077572;28;20040;-67
2024/03/08 01:30:24;;;;;;;17.42;10.65;;;4.20;83.50;;;;;;5070112;28;20466;-66
2024/03/08 01:32:49;;;;;;;21.77;12.90;;;4.10;83.10;;;;;;5067698;28;20025;-67
2024/03/08 01:35:15;;;;;;;20.77;11.40;;;4.10;82.90;;;;;;5071942;28;20094;-66
2024/03/08 01:37:40;;;;;;;19.50;11.82;;;4.10;82.80;;;;;;5075337;28;20017;-67
2024/03/08 01:40:08;;;;;;;22.50;13.25;;;4.00;82.40;;;;;;5082538;28;20019;-67
2024/03/08 01:42:37;;;;;;;18.75;11.13;;;4.00;82.60;;;;;;5071371;28;20021;-67
2024/03/08 01:45:06;;;;;;;22.92;13.23;;;4.00;82.40;;;;;;5072575;28;20470;-66
2024/03/08 01:47:32;;;;;;;19.90;11.18;;;3.90;82.30;;;;;;5072326;28;20039;-63
2024/03/08 01:50:01;;;;;;;21.02;11.60;;;3.90;82.60;;;;;;5075190;28;20428;-66
2024/03/08 01:52:27;;;;;;;18.65;11.57;;;3.90;82.50;;;;;;5068382;28;20055;-67
2024/03/08 01:54:53;;;;;;;18.23;10.50;;;3.90;82.60;;;;;;5077104;28;20656;-65
2024/03/08 01:57:19;;;;;;;19.00;11.23;;;3.80;82.60;;;;;;5078270;28;20024;-65
2024/03/08 01:59:45;;;;;;;18.63;11.27;;;3.80;82.70;;;;;;5080509;28;20134;-67
2024/03/08 02:02:15;;;;;;;21.65;11.75;;;3.80;82.60;;;;;;5081752;28;20141;-66
2024/03/08 02:04:40;;;;;;;20.13;11.02;;;3.80;82.70;;;;;;5067554;28;20380;-66
2024/03/08 02:07:06;;;;;;;21.80;13.40;;;3.80;82.60;;;;;;5079597;28;20020;-63
2024/03/08 02:09:32;;;;;;;18.95;11.02;;;3.70;82.40;;;;;;5069916;28;20169;-66
2024/03/08 02:11:57;;;;;;;23.90;12.75;;;3.70;82.50;;;;;;5068995;28;20067;-67
2024/03/08 02:14:23;;;;;;;23.40;13.32;;;3.70;82.30;;;;;;5069862;28;20071;-67
2024/03/08 02:16:50;;;;;;;24.23;13.82;;;3.60;82.50;;;;;;5069031;28;20028;-66
2024/03/08 02:19:16;;;;;;;21.52;12.93;;;3.60;82.30;;;;;;5063837;28;20694;-64
2024/03/08 02:21:41;;;;;;;22.52;13.07;;;3.60;82.40;;;;;;5076468;28;20038;-67
2024/03/08 02:24:07;;;;;;;21.30;12.60;;;3.60;82.50;;;;;;5072604;28;20672;-66
2024/03/08 02:26:33;;;;;;;19.88;11.60;;;3.50;82.50;;;;;;5068881;28;20023;-63
2024/03/08 02:28:58;;;;;;;20.42;11.70;;;3.60;82.70;;;;;;5079914;28;20013;-66
2024/03/08 02:31:24;;;;;;;23.05;12.50;;;3.50;82.60;;;;;;5076518;28;20020;-67
2024/03/08 02:33:49;;;;;;;19.95;11.57;;;3.50;82.70;;;;;;5078539;28;20093;-66
2024/03/08 02:36:16;;;;;;;20.52;11.35;;;3.50;82.80;;;;;;5075902;28;20089;-64
2024/03/08 02:38:41;;;;;;;18.80;11.32;;;3.50;82.50;;;;;;5074084;28;20540;-65
2024/03/08 02:41:08;;;;;;;21.38;12.57;;;3.40;82.60;;;;;;5079847;28;20028;-66
2024/03/08 02:43:34;;;;;;;20.35;11.52;;;3.50;82.70;;;;;;5071883;28;20020;-65
2024/03/08 02:46:00;;;;;;;19.90;11.95;;;3.40;82.80;;;;;;5076123;28;20034;-65
2024/03/08 02:48:25;;;;;;;18.73;11.35;;;3.40;82.70;;;;;;5071378;28;20048;-64
2024/03/08 02:50:51;;;;;;;19.27;11.80;;;3.40;82.80;;;;;;5073398;28;20032;-67
2024/03/08 02:53:18;;;;;;;21.30;12.60;;;3.40;82.80;;;;;;5075681;28;20024;-66
2024/03/08 02:55:44;;;;;;;22.17;13.18;;;3.30;82.80;;;;;;5066847;28;20059;-66
2024/03/08 02:58:10;;;;;;;23.25;13.75;;;3.30;82.70;;;;;;5074377;28;20048;-67
2024/03/08 03:00:37;;;;;;;19.75;12.00;;;3.30;82.80;;;;;;5071186;28;20056;-65
2024/03/08 03:03:03;;;;;;;21.33;12.00;;;3.30;83.00;;;;;;5076664;28;20035;-65
2024/03/08 03:05:32;;;;;;;18.73;10.90;;;3.30;82.90;;;;;;5070275;28;20024;-67
2024/03/08 03:08:01;;;;;;;22.65;12.95;;;3.30;82.90;;;;;;5084808;28;20044;-66
2024/03/08 03:10:26;;;;;;;19.65;11.43;;;3.30;82.90;;;;;;5070797;28;20387;-67
2024/03/08 03:12:52;;;;;;;21.50;12.88;;;3.30;82.90;;;;;;5076976;28;20020;-67
2024/03/08 03:15:18;;;;;;;19.75;11.70;;;3.20;82.80;;;;;;5065746;28;20025;-67
2024/03/08 03:17:53;;;;;;;20.98;12.20;;;3.20;82.90;;;;;;5073257;28;20785;-66
2024/03/08 03:20:32;;;;;;;22.35;13.38;;;3.20;83.00;;;;;;5070113;28;20021;-65
2024/03/08 03:23:00;;;;;;;23.02;13.20;;;3.20;83.00;;;;;;5073882;28;20115;-65
2024/03/08 03:25:29;;;;;;;21.90;13.57;;;3.20;83.00;;;;;;5078282;28;20021;-66
2024/03/08 03:27:57;;;;;;;24.58;13.90;;;3.20;82.90;;;;;;5078543;28;20115;-66
2024/03/08 03:30:26;;;;;;;24.50;13.27;;;3.10;83.00;;;;;;5075233;28;20021;-65
2024/03/08 03:32:52;;;;;;;22.15;12.48;;;3.10;83.00;;;;;;5071575;28;20052;-66
2024/03/08 03:35:20;;;;;;;21.63;12.63;;;3.10;83.10;;;;;;5070031;28;20044;-64
2024/03/08 03:38:01;;;;;;;20.60;11.52;;;3.10;83.10;;;;;;5069870;28;20024;-66
2024/03/08 03:40:28;;;;;;;22.20;13.23;;;3.10;83.10;;;;;;5084797;28;20016;-65
2024/03/08 03:42:53;;;;;;;18.67;11.23;;;3.10;83.10;;;;;;5079435;28;20017;-66
2024/03/08 03:45:19;;;;;;;18.77;11.20;;;3.10;83.10;;;;;;5075789;28;20048;-66
2024/03/08 03:47:45;;;;;;;21.52;12.30;;;3.00;83.00;;;;;;5074348;28;20103;-66
2024/03/08 03:50:11;;;;;;;24.95;14.77;;;3.10;83.10;;;;;;5075042;28;20096;-66
2024/03/08 03:52:37;;;;;;;21.90;12.98;;;3.00;83.00;;;;;;5068392;28;20082;-66
2024/03/08 03:55:04;;;;;;;23.05;13.50;;;3.00;83.10;;;;;;5080885;28;20454;-66
2024/03/08 03:57:30;;;;;;;19.38;11.57;;;3.00;83.10;;;;;;5077809;28;20085;-66
2024/03/08 03:59:57;;;;;;;21.20;12.50;;;3.00;83.20;;;;;;5077929;28;20065;-65
2024/03/08 04:02:22;;;;;;;17.80;10.32;;;3.00;83.20;;;;;;5072620;28;20039;-66
2024/03/08 04:04:49;;;;;;;22.13;12.25;;;3.00;83.20;;;;;;5075787;28;20033;-65
2024/03/08 04:07:14;;;;;;;21.48;13.80;;;2.90;83.10;;;;;;5078372;28;20021;-66
2024/03/08 04:09:40;;;;;;;24.13;12.05;;;3.00;83.30;;;;;;5077990;28;20029;-63
2024/03/08 04:12:06;;;;;;;21.50;12.75;;;3.00;83.20;;;;;;5068844;28;20043;-65
2024/03/08 04:14:31;;;;;;;21.20;12.32;;;3.00;83.20;;;;;;5075154;28;20082;-66
2024/03/08 04:16:57;;;;;;;18.33;10.43;;;3.00;83.20;;;;;;5080695;28;20028;-67
2024/03/08 04:19:24;;;;;;;20.23;12.15;;;3.00;83.30;;;;;;5067771;28;20048;-65
2024/03/08 04:21:49;;;;;;;21.02;12.75;;;2.90;83.10;;;;;;5070203;28;20056;-67
2024/03/08 04:24:17;;;;;;;22.52;13.05;;;2.90;83.20;;;;;;5072290;28;20053;-66
2024/03/08 04:26:42;;;;;;;19.83;12.32;;;2.90;83.20;;;;;;5072487;28;20111;-66
2024/03/08 04:29:08;;;;;;;20.92;12.52;;;2.90;83.30;;;;;;5071525;28;20151;-66
2024/03/08 04:31:33;;;;;;;24.77;14.02;;;2.90;83.20;;;;;;5076958;28;20020;-66
2024/03/08 04:33:59;;;;;;;23.52;13.50;;;2.90;83.20;;;;;;5075848;28;20047;-64
2024/03/08 04:36:24;;;;;;;24.80;13.85;;;2.90;83.30;;;;;;5075979;28;20033;-65
2024/03/08 04:38:51;;;;;;;21.40;12.13;;;2.90;83.30;;;;;;5070907;28;20024;-67
2024/03/08 04:41:17;;;;;;;21.05;13.32;;;2.90;83.30;;;;;;5069208;28;20020;-65
2024/03/08 04:43:43;;;;;;;19.25;11.55;;;2.80;83.20;;;;;;5074856;28;20028;-64
2024/03/08 04:46:08;;;;;;;18.92;11.15;;;2.90;83.40;;;;;;5077272;28;20031;-66
2024/03/08 04:48:36;;;;;;;21.38;11.98;;;2.80;83.30;;;;;;5077627;28;20020;-66
2024/03/08 04:51:03;;;;;;;23.27;13.52;;;2.90;83.30;;;;;;5064559;28;20028;-66
2024/03/08 04:53:29;;;;;;;24.95;14.07;;;2.80;83.20;;;;;;5080433;28;20025;-67
2024/03/08 04:55:57;;;;;;;26.10;14.40;;;2.80;83.90;;;;;;5069662;28;20469;-66
2024/03/08 04:58:23;;;;;;;25.38;14.80;;;2.80;83.30;;;;;;5079403;28;20024;-66
2024/03/08 05:00:49;;;;;;;23.02;13.65;;;2.80;83.30;;;;;;5071253;28;20459;-65
2024/03/08 05:03:16;;;;;;;21.73;13.13;;;2.80;83.30;;;;;;5081862;28;20041;-67
2024/03/08 05:05:41;;;;;;;23.50;12.98;;;2.80;83.30;;;;;;5074796;28;20078;-66
2024/03/08 05:08:07;;;;;;;19.90;12.30;;;2.80;83.30;;;;;;5074917;28;20482;-66
2024/03/08 05:10:32;;;;;;;21.42;11.43;;;2.80;83.20;;;;;;5081621;28;20027;-66
2024/03/08 05:12:58;;;;;;;20.67;11.80;;;2.80;83.20;;;;;;5068400;28;20560;-66
2024/03/08 05:15:24;;;;;;;24.35;12.80;;;2.80;83.10;;;;;;5067609;28;20017;-63
2024/03/08 05:17:49;;;;;;;21.80;12.98;;;2.80;83.10;;;;;;5070536;28;20536;-66
2024/03/08 05:20:17;;;;;;;21.98;13.40;;;2.80;83.20;;;;;;5069536;28;20017;-66
2024/03/08 05:22:42;;;;;;;22.35;11.80;;;2.80;83.20;;;;;;5071921;28;20098;-67
2024/03/08 05:25:08;;;;;;;22.70;12.77;;;2.80;83.20;;;;;;5074427;28;20478;-67
2024/03/08 05:27:35;;;;;;;19.35;11.55;;;2.80;83.10;;;;;;5072740;28;20023;-67
2024/03/08 05:30:03;;;;;;;24.08;13.38;;;2.80;83.20;;;;;;5075005;28;20092;-67
2024/03/08 05:32:29;;;;;;;24.00;14.07;;;2.80;83.10;;;;;;5074410;28;20102;-67
2024/03/08 05:34:55;;;;;;;23.73;14.30;;;2.80;83.10;;;;;;5070084;28;20029;-67
2024/03/08 05:37:20;;;;;;;25.42;14.95;;;2.70;83.10;;;;;;5066090;28;20101;-66
2024/03/08 05:39:46;;;;;;;25.15;14.27;;;2.70;83.10;;;;;;5070175;28;20040;-66
2024/03/08 05:42:11;;;;;;;24.10;13.35;;;2.70;83.20;;;;;;5075216;28;20575;-66
2024/03/08 05:44:37;;;;;;;20.73;12.35;;;2.70;83.20;;;;;;5067217;28;20029;-67
2024/03/08 05:47:02;;;;;;;20.60;11.95;;;2.80;83.20;;;;;;5073725;28;20020;-65
2024/03/08 05:49:28;;;;;;;24.60;14.25;;;2.70;83.20;;;;;;5070927;28;20066;-68
2024/03/08 05:51:54;;;;;;;23.38;12.95;;;2.80;83.10;;;;;;5072710;28;20016;-66
2024/03/08 05:54:22;;;;;;;22.00;12.88;;;2.70;83.10;;;;;;5080690;28;20035;-66
2024/03/08 05:56:47;;;;;;;22.48;13.32;;;2.70;83.20;;;;;;5072540;28;20023;-66
2024/03/08 05:59:13;;;;;;;23.27;12.88;;;2.70;83.10;;;;;;5077138;28;20371;-66
2024/03/08 06:01:40;;;;;;;22.25;13.20;;;2.70;83.20;;;;;;5069005;28;20051;-66
2024/03/08 06:04:07;;;;;;;23.23;14.10;;;2.70;83.20;;;;;;5069799;28;20021;-65
2024/03/08 06:06:33;;;;;;;25.23;14.80;;;2.70;83.10;;;;;;5075577;28;20050;-66
2024/03/08 06:08:59;;;;;;;28.13;15.60;;;2.60;83.80;;;;;;5076397;28;20429;-64
2024/03/08 06:11:26;;;;;;;25.58;14.93;;;2.60;83.20;;;;;;5068945;28;20027;-66
2024/03/08 06:13:55;;;;;;;30.48;16.70;;;2.60;83.20;;;;;;5068907;28;20098;-66
2024/03/08 06:16:20;;;;;;;28.13;15.27;;;2.60;83.20;;;;;;5072107;28;20020;-65
2024/03/08 06:18:46;;;;;;;24.73;13.82;;;2.60;83.20;;;;;;5070481;28;20029;-65
2024/03/08 06:21:12;;;;;;;23.85;14.02;;;2.60;83.30;;;;;;5068549;28;20032;-67
2024/03/08 06:23:38;;;;;;;27.50;15.80;;;2.60;83.30;;;;;;5072192;28;20050;-66
2024/03/08 06:26:07;;;;;;;24.63;14.65;;;2.60;83.20;;;;;;5068002;28;20029;-66
2024/03/08 06:28:33;;;;;;;23.58;13.73;;;2.60;83.30;;;;;;5072128;28;20012;-66
2024/03/08 06:31:02;;;;;;;27.75;15.23;;;2.60;83.30;;;;;;5078386;28;20031;-66
2024/03/08 06:33:28;;;;;;;28.05;15.63;;;2.60;83.10;;;;;;5069628;28;20083;-66
2024/03/08 06:35:57;;;;;;;26.13;14.52;;;2.60;83.20;;;;;;5076074;28;20036;-66
2024/03/08 06:38:26;;;;;;;26.77;16.02;;;2.70;83.30;;;;;;5060787;28;20082;-63
2024/03/08 06:40:52;;;;;;;25.55;14.43;;;2.70;83.20;;;;;;5074426;28;20031;-66
2024/03/08 06:43:18;;;;;;;32.85;17.90;;;2.70;83.20;;;;;;5069472;28;20403;-67
2024/03/08 06:45:49;;;;;;;27.27;16.23;;;2.70;83.10;;;;;;5068225;28;20025;-66
2024/03/08 06:48:16;;;;;;;25.73;15.32;;;2.70;83.10;;;;;;5070670;28;20523;-66
2024/03/08 06:50:45;;;;;;;27.48;15.80;;;2.70;83.00;;;;;;5059225;28;20025;-67
2024/03/08 06:53:12;;;;;;;27.17;15.30;;;2.70;82.90;;;;;;5082069;28;20035;-66
2024/03/08 06:55:38;;;;;;;30.42;17.25;;;2.80;82.90;;;;;;5070807;28;20032;-67
2024/03/08 06:58:04;;;;;;;24.38;15.00;;;2.80;82.80;;;;;;5077896;28;20055;-67
2024/03/08 07:00:30;;;;;;;28.00;16.17;;;2.80;82.90;;;;;;5077067;28;20064;-66
2024/03/08 07:03:00;;;;;;;26.88;15.30;;;2.90;82.80;;;;;;5075657;28;20044;-65
2024/03/08 07:05:26;;;;;;;25.42;14.32;;;2.90;82.60;;;;;;5064474;28;20028;-66
2024/03/08 07:07:52;;;;;;;28.85;16.27;;;3.00;82.50;;;;;;5067930;28;20032;-66
2024/03/08 07:10:19;;;;;;;28.60;16.20;;;3.00;82.30;;;;;;5067769;28;20075;-64
2024/03/08 07:12:44;;;;;;;29.60;16.20;;;3.00;82.30;;;;;;5069326;28;20017;-66
2024/03/08 07:15:13;;;;;;;27.45;15.80;;;3.10;82.10;;;;;;5078876;28;20028;-67
2024/03/08 07:17:39;;;;;;;24.30;14.07;;;3.20;82.10;;;;;;5080154;28;20031;-67
2024/03/08 07:20:07;;;;;;;25.15;13.77;;;3.20;82.00;;;;;;5072780;28;20503;-68
2024/03/08 07:22:33;;;;;;;27.40;15.05;;;3.30;81.80;;;;;;5070340;28;20031;-67
2024/03/08 07:27:34;;;;;;;32.05;17.60;;;3.30;81.40;;;;;;5064098;28;20470;-65
2024/03/08 07:30:00;;;;;;;31.75;18.73;;;3.40;81.20;;;;;;5067950;28;20106;-67
2024/03/08 07:32:28;;;;;;;29.45;16.63;;;3.40;81.20;;;;;;5072831;28;20397;-66
2024/03/08 07:34:55;;;;;;;29.15;16.40;;;3.40;81.00;;;;;;5071445;28;20115;-65
2024/03/08 07:37:21;;;;;;;29.73;16.52;;;3.50;81.10;;;;;;5071117;28;20542;-66
2024/03/08 07:39:47;;;;;;;25.55;14.82;;;3.60;80.90;;;;;;5068714;28;20112;-65
2024/03/08 07:42:12;;;;;;;27.45;15.82;;;3.60;80.60;;;;;;5072612;28;20391;-66
2024/03/08 07:44:39;;;;;;;28.45;16.63;;;3.70;80.50;;;;;;5069778;28;20063;-63
2024/03/08 07:47:04;;;;;;;27.45;15.77;;;3.70;80.40;;;;;;5068733;28;20025;-64
2024/03/08 07:49:30;;;;;;;26.00;14.70;;;3.70;80.40;;;;;;5064000;28;20490;-66
2024/03/08 07:51:57;;;;;;;28.77;16.38;;;3.80;80.50;;;;;;5068818;28;20051;-66
2024/03/08 07:54:23;;;;;;;29.48;16.67;;;3.80;80.00;;;;;;5070772;28;20028;-66
2024/03/08 07:56:50;;;;;;;28.10;16.00;;;3.80;80.00;;;;;;5071375;28;20033;-64
2024/03/08 07:59:16;;;;;;;29.20;15.63;;;3.90;80.00;;;;;;5072895;28;20028;-66
2024/03/08 08:01:41;;;;;;;27.60;16.08;;;4.00;79.80;;;;;;5064905;28;20044;-66
2024/03/08 08:04:11;;;;;;;27.23;15.23;;;4.00;79.60;;;;;;5070208;28;20032;-65
2024/03/08 08:06:43;;;;;;;32.80;17.27;;;4.00;79.40;;;;;;5070081;28;20016;-66
2024/03/08 08:09:14;;;;;;;27.90;16.40;;;4.00;79.30;;;;;;5070554;28;20051;-66
2024/03/08 08:11:43;;;;;;;27.15;16.02;;;4.10;79.10;;;;;;5069605;28;20107;-66
2024/03/08 08:14:09;;;;;;;29.27;16.17;;;4.20;79.10;;;;;;5069027;28;20093;-67
2024/03/08 08:16:41;;;;;;;27.38;15.98;;;4.20;78.90;;;;;;5069891;28;20032;-66
2024/03/08 08:19:07;;;;;;;25.08;14.35;;;4.20;79.00;;;;;;5067446;28;20030;-67
2024/03/08 08:21:38;;;;;;;23.50;14.50;;;4.30;79.00;;;;;;5069935;28;20036;-64
2024/03/08 08:24:04;;;;;;;25.90;15.20;;;4.40;78.60;;;;;;5067892;28;20489;-65
2024/03/08 08:26:30;;;;;;;21.48;12.73;;;4.50;78.70;;;;;;5068154;28;20029;-67
2024/03/08 08:28:56;;;;;;;22.25;13.32;;;4.60;78.80;;;;;;5070443;28;20020;-67
2024/03/08 08:31:21;;;;;;;23.73;13.55;;;4.60;78.50;;;;;;5069333;28;20393;-67
2024/03/08 08:33:48;;;;;;;21.73;12.23;;;4.70;78.30;;;;;;5078086;28;20033;-66
2024/03/08 08:36:14;;;;;;;29.90;16.45;;;4.80;78.50;;;;;;5073309;28;20020;-67
2024/03/08 08:38:42;;;;;;;23.05;13.88;;;4.80;77.80;;;;;;5069718;28;20157;-67
2024/03/08 08:41:09;;;;;;;20.20;11.52;;;4.80;78.00;;;;;;5069217;28;20390;-67
2024/03/08 08:43:35;;;;;;;20.05;11.73;;;4.90;78.30;;;;;;5070258;28;20024;-67
2024/03/08 08:46:01;;;;;;;21.50;12.10;;;5.00;78.00;;;;;;5066641;28;20021;-67
2024/03/08 08:48:28;;;;;;;23.42;13.45;;;5.10;78.00;;;;;;5069529;28;20031;-67
2024/03/08 08:50:53;;;;;;;22.83;13.80;;;5.10;77.90;;;;;;5067197;28;20464;-66
2024/03/08 08:53:19;;;;;;;27.23;14.85;;;5.20;77.50;;;;;;5070495;28;20090;-67
2024/03/08 08:55:45;;;;;;;25.80;16.08;;;5.20;77.70;;;;;;5075299;28;20112;-67
2024/03/08 08:58:11;;;;;;;24.58;14.43;;;5.20;77.10;;;;;;5069410;28;20046;-65
2024/03/08 09:00:36;;;;;;;27.25;15.57;;;5.30;77.20;;;;;;5068556;28;20123;-67
2024/03/08 09:03:02;;;;;;;29.75;16.85;;;5.30;76.70;;;;;;5067595;28;20069;-66
2024/03/08 09:05:28;;;;;;;25.90;14.85;;;5.30;76.60;;;;;;5068306;28;20032;-66
2024/03/08 09:07:54;;;;;;;22.63;13.27;;;5.30;76.70;;;;;;5069206;28;20025;-65
2024/03/08 09:10:21;;;;;;;25.50;14.82;;;5.40;77.10;;;;;;5065282;28;20035;-65
2024/03/08 09:12:47;;;;;;;27.40;15.85;;;5.50;76.70;;;;;;5076980;28;20020;-65
2024/03/08 09:15:13;;;;;;;26.98;14.75;;;5.50;76.20;;;;;;5073558;28;20104;-67
2024/03/08 09:17:41;;;;;;;23.25;13.88;;;5.60;76.20;;;;;;5068125;28;20064;-66
2024/03/08 09:20:08;;;;;;;19.02;11.52;;;5.60;76.40;;;;;;5067735;28;20043;-66
2024/03/08 09:22:34;;;;;;;20.70;12.30;;;5.80;76.70;;;;;;5069293;28;20070;-67
2024/03/08 09:25:00;;;;;;;30.23;16.13;;;5.90;76.40;;;;;;5067644;28;20032;-67
2024/03/08 09:27:25;;;;;;;27.45;16.48;;;5.90;75.80;;;;;;5068482;28;20055;-68
2024/03/08 09:29:51;;;;;;;30.50;16.25;;;5.90;75.60;;;;;;5076519;28;20111;-65
2024/03/08 09:32:16;;;;;;;27.95;16.45;;;5.90;75.40;;;;;;5068587;28;20055;-66
2024/03/08 09:34:42;;;;;;;29.60;17.13;;;6.00;75.30;;;;;;5069259;28;20036;-67
2024/03/08 09:37:08;;;;;;;26.67;14.55;;;6.00;75.20;;;;;;5068277;28;20543;-67
2024/03/08 09:39:34;;;;;;;26.77;15.27;;;6.10;75.60;;;;;;5071838;28;20028;-67
2024/03/08 09:42:00;;;;;;;29.08;16.25;;;6.20;75.10;;;;;;5067290;28;20043;-66
2024/03/08 09:44:28;;;;;;;27.80;15.88;;;6.20;74.90;;;;;;5071004;28;20023;-65
2024/03/08 09:46:55;;;;;;;26.15;14.57;;;6.20;74.80;;;;;;5067366;28;20025;-65
2024/03/08 09:49:20;;;;;;;24.63;13.60;;;6.30;75.00;;;;;;5077956;28;20028;-66
2024/03/08 09:51:46;;;;;;;25.00;13.38;;;6.40;74.90;;;;;;5072676;28;20150;-65
2024/03/08 09:54:12;;;;;;;22.75;13.38;;;6.50;74.70;;;;;;5069055;28;20069;-66
2024/03/08 09:56:41;;;;;;;21.38;12.35;;;6.60;74.60;;;;;;5068967;28;20031;-66
2024/03/08 10:01:52;;;;;;;25.50;14.88;;;6.80;74.10;;;;;;5066270;28;20035;-67
2024/03/08 10:04:18;;;;;;;24.08;13.02;;;6.70;73.50;;;;;;5072190;28;20482;-67
2024/03/08 10:06:47;;;;;;;22.60;13.32;;;6.80;73.80;;;;;;5070869;28;20027;-66
2024/03/08 10:09:13;;;;;;;24.58;14.30;;;6.80;73.70;;;;;;5067043;28;20032;-65
2024/03/08 10:11:40;;;;;;;27.67;15.93;;;6.90;73.10;;;;;;5065284;28;20040;-66
2024/03/08 10:14:07;;;;;;;19.45;11.32;;;6.90;73.00;;;;;;5065108;28;20501;-66
2024/03/08 10:16:35;;;;;;;25.75;15.15;;;7.00;73.40;;;;;;5076091;28;20039;-65
2024/03/08 10:19:00;;;;;;;22.67;13.55;;;7.10;72.50;;;;;;5075940;28;20482;-66
2024/03/08 10:21:26;;;;;;;29.52;16.23;;;7.20;72.90;;;;;;5081085;28;20107;-66
2024/03/08 10:23:52;;;;;;;20.77;13.02;;;7.20;72.60;;;;;;5074760;28;20025;-67
2024/03/08 10:26:20;;;;;;;22.75;12.63;;;7.30;72.90;;;;;;5065404;28;20522;-65
2024/03/08 10:28:48;;;;;;;24.38;13.15;;;7.40;72.30;;;;;;5065093;28;20035;-65
2024/03/08 10:31:15;;;;;;;20.98;12.25;;;7.40;72.00;;;;;;5075932;28;20021;-65
2024/03/08 10:33:41;;;;;;;24.67;13.77;;;7.50;71.90;;;;;;5073119;28;20028;-66
2024/03/08 10:36:11;;;;;;;19.45;11.40;;;7.50;71.70;;;;;;5075983;28;20028;-65
2024/03/08 10:38:41;;;;;;;19.88;12.18;;;7.60;72.20;;;;;;5079718;28;20025;-66
2024/03/08 10:41:14;;;;;;;20.52;11.40;;;7.70;71.70;;;;;;5071694;28;20024;-66
2024/03/08 10:44:08;;;;;;;18.98;10.90;;;7.90;71.80;;;;;;5073678;28;20040;-66
2024/03/08 10:47:00;;;;;;;18.23;11.02;;;8.00;71.70;;;;;;5036680;28;20060;-66
2024/03/08 10:49:34;;;;;;;19.55;11.43;;;8.10;71.20;;;;;;5068853;28;20012;-65
2024/03/08 10:52:03;;;;;;;20.25;12.23;;;8.10;71.00;;;;;;5077233;28;20024;-65
2024/03/08 10:54:31;;;;;;;20.77;12.23;;;8.20;70.50;;;;;;5085583;28;20449;-66
2024/03/08 10:56:57;;;;;;;21.45;11.95;;;8.20;70.40;;;;;;5071477;28;20025;-66
2024/03/08 10:59:24;;;;;;;20.60;11.85;;;8.20;70.20;;;;;;5077718;28;20031;-66
2024/03/08 11:01:50;;;;;;;19.17;11.55;;;8.30;70.30;;;;;;5069564;28;20035;-65
2024/03/08 11:04:19;;;;;;;15.40;9.10;;;8.40;70.40;;;;;;5073937;28;20120;-67
2024/03/08 11:06:46;;;;;;;20.42;11.95;;;8.50;70.60;;;;;;5074191;28;20013;-67
2024/03/08 11:09:30;;;;;;;22.58;13.30;;;8.60;69.80;;;;;;5069994;28;20479;-67
2024/03/08 11:12:18;;;;;;;16.15;9.73;;;8.60;69.60;;;;;;5069586;28;20051;-65
2024/03/08 11:14:48;;;;;;;21.33;12.52;;;8.70;69.70;;;;;;5068579;28;20024;-66
2024/03/08 11:17:16;;;;;;;18.10;10.98;;;8.70;68.90;;;;;;5072706;28;20024;-66
2024/03/08 11:19:47;;;;;;;19.92;12.52;;;8.80;69.40;;;;;;5074041;28;20024;-68
2024/03/08 11:22:27;;;;;;;21.35;12.75;;;8.80;68.30;;;;;;5071837;28;20039;-67
2024/03/08 11:24:58;;;;;;;24.50;14.52;;;8.80;68.30;;;;;;5073347;28;20033;-64
2024/03/08 11:27:30;;;;;;;22.83;13.75;;;8.80;68.40;;;;;;5077031;28;20021;-67
2024/03/08 11:30:12;;;;;;;24.35;13.30;;;8.80;67.70;;;;;;5072451;28;20074;-67
2024/03/08 11:32:38;;;;;;;23.52;13.65;;;8.80;67.60;;;;;;5076901;28;20479;-67
2024/03/08 11:35:19;;;;;;;20.35;11.95;;;8.90;67.20;;;;;;5077371;28;20099;-67
2024/03/08 11:37:45;;;;;;;22.02;13.10;;;8.90;67.30;;;;;;5071058;28;20024;-66
2024/03/08 11:40:16;;;;;;;20.33;12.35;;;8.90;66.80;;;;;;5078948;28;20024;-67
2024/03/08 11:42:49;;;;;;;18.67;11.30;;;9.00;67.00;;;;;;5073921;28;20036;-67
2024/03/08 11:45:18;;;;;;;18.58;11.40;;;9.20;66.60;;;;;;5067353;28;20028;-67
2024/03/08 11:47:46;;;;;;;19.70;10.90;;;9.30;66.90;;;;;;5074040;28;20037;-66
2024/03/08 11:50:12;;;;;;;17.02;10.73;;;9.40;66.70;;;;;;5071176;28;20086;-65
2024/03/08 11:52:38;;;;;;;18.02;10.27;;;9.50;66.20;;;;;;5070249;28;20028;-65
2024/03/08 11:55:05;;;;;;;16.83;10.40;;;9.50;64.80;;;;;;5074286;28;20028;-66
2024/03/08 11:57:31;;;;;;;20.30;12.02;;;9.50;65.00;;;;;;5070449;28;20082;-66
2024/03/08 12:00:06;;;;;;;18.42;11.35;;;9.50;64.40;;;;;;5072412;28;20516;-67
2024/03/08 12:02:37;;;;;;;17.40;11.10;;;9.50;63.60;;;;;;5073316;28;20035;-66
2024/03/08 12:05:10;;;;;;;15.05;9.20;;;9.50;63.80;;;;;;5073253;28;20589;-64
2024/03/08 12:07:36;;;;;;;13.80;8.50;;;9.60;64.80;;;;;;5071192;28;20020;-66
2024/03/08 12:10:24;;;;;;;16.60;10.18;;;9.80;65.10;;;;;;5070601;28;20550;-66
2024/03/08 12:12:52;;;;;;;15.15;8.80;;;10.00;64.30;;;;;;5071702;28;20024;-66
2024/03/08 12:15:19;;;;;;;16.75;10.38;;;10.00;64.40;;;;;;5070197;28;20032;-66
2024/03/08 12:17:48;;;;;;;17.05;10.00;;;10.10;63.00;;;;;;5068594;28;20394;-65
2024/03/08 12:20:21;;;;;;;16.80;10.40;;;10.10;62.00;;;;;;5096702;27;20131;-67
2024/03/08 12:22:48;;;;;;;17.15;10.68;;;10.10;62.50;;;;;;5070335;28;20025;-67
2024/03/08 12:25:15;;;;;;;19.73;11.93;;;10.00;61.60;;;;;;5069584;28;20021;-66
2024/03/08 12:27:41;;;;;;;19.67;11.93;;;10.00;61.90;;;;;;5066616;28;20423;-66
2024/03/08 12:30:26;;;;;;;17.10;10.82;;;10.00;61.90;;;;;;5077329;28;20028;-67
2024/03/08 12:32:59;;;;;;;19.67;12.43;;;10.20;62.40;;;;;;5080622;28;20028;-65
2024/03/08 12:35:29;;;;;;;19.33;12.15;;;10.30;61.20;;;;;;5078238;28;20024;-66
2024/03/08 12:37:57;;;;;;;16.83;11.03;;;10.20;61.00;;;;;;5073419;28;20033;-66
2024/03/08 12:40:28;;;;;;;20.50;12.05;;;10.30;60.90;;;;;;5069581;28;20048;-66
2024/03/08 12:42:54;;;;;;;17.58;10.90;;;10.30;59.70;;;;;;5071627;28;20079;-66